Time;durP1;ratioP1;P1;durP2;ratioP2;P2;SDS_P1;SDS_P2;PMS_P1;PMS_P2;Temp;Humidity;BMP_temperature;BMP_pressure;BME280_temperature;BME280_humidity;BME280_pressure;Samples;Min_cycle;Max_cycle;Signal;HPM_P1;HPM_P2
2024/04/09 00:02:24;;;;;;;36.03;13.75;;;;;;;;;;5435344;26;19999;-59
2024/04/09 00:04:49;;;;;;;25.33;12.50;;;;;;;;;;5435874;26;20055;-59
2024/04/09 00:07:15;;;;;;;27.05;11.25;;;;;;;;;;5428339;26;20000;-59
2024/04/09 00:09:43;;;;;;;32.65;12.05;;;;;;;;;;5435114;26;20071;-59
2024/04/09 00:12:12;;;;;;;32.87;10.80;;;;;;;;;;5436420;26;20027;-57
2024/04/09 00:14:38;;;;;;;30.03;11.03;;;;;;;;;;5436551;26;20230;-58
2024/04/09 00:17:06;;;;;;;36.30;13.13;;;;;;;;;;5437241;26;20300;-60
2024/04/09 00:19:32;;;;;;;28.77;12.87;;;;;;;;;;5435949;26;20007;-58
2024/04/09 00:21:59;;;;;;;26.92;13.20;;;;;;;;;;5436676;26;20217;-58
2024/04/09 00:24:25;;;;;;;33.47;15.13;;;;;;;;;;5436881;26;20015;-55
2024/04/09 00:26:51;;;;;;;30.85;14.35;;;;;;;;;;5437305;26;20237;-59
2024/04/09 00:29:16;;;;;;;32.53;15.23;;;;;;;;;;5437017;26;20004;-58
2024/04/09 00:31:41;;;;;;;28.50;13.93;;;;;;;;;;5436589;26;20237;-59
2024/04/09 00:34:06;;;;;;;27.20;14.50;;;;;;;;;;5436649;26;20004;-59
2024/04/09 00:36:33;;;;;;;34.17;13.80;;;;;;;;;;5436808;26;20022;-56
2024/04/09 00:39:00;;;;;;;;;;;;;;;;;;5437683;26;20017;-57
2024/04/09 00:41:25;;;;;;;24.88;11.82;;;;;;;;;;5433037;26;19933;-60
2024/04/09 00:43:51;;;;;;;29.00;11.40;;;;;;;;;;5406045;26;20049;-60
2024/04/09 00:46:19;;;;;;;27.05;13.23;;;;;;;;;;5435958;26;20007;-59
2024/04/09 00:48:46;;;;;;;23.73;12.10;;;;;;;;;;5433925;26;20031;-60
2024/04/09 00:51:13;;;;;;;31.43;11.70;;;;;;;;;;5430406;26;20265;-59
2024/04/09 00:53:39;;;;;;;;;;;;;;;;;;5437190;26;20274;-59
2024/04/09 00:56:05;;;;;;;26.97;10.00;;;;;;;;;;5436186;26;19937;-58
2024/04/09 00:58:31;;;;;;;22.30;10.05;;;;;;;;;;5436712;26;20280;-58
2024/04/09 01:00:56;;;;;;;18.77;10.40;;;;;;;;;;5436479;26;20003;-57
2024/04/09 01:03:22;;;;;;;32.88;11.65;;;;;;;;;;5417357;26;20050;-59
2024/04/09 01:05:47;;;;;;;28.93;11.63;;;;;;;;;;5435598;26;20007;-57
2024/04/09 01:08:12;;;;;;;33.13;12.17;;;;;;;;;;5436584;26;20007;-58
2024/04/09 01:10:37;;;;;;;26.60;11.77;;;;;;;;;;5435978;26;19999;-58
2024/04/09 01:13:03;;;;;;;26.27;11.95;;;;;;;;;;5436305;26;19999;-59
2024/04/09 01:15:30;;;;;;;26.33;11.07;;;;;;;;;;5435596;26;20000;-57
2024/04/09 01:17:56;;;;;;;50.92;11.63;;;;;;;;;;5436509;26;20020;-59
2024/04/09 01:20:21;;;;;;;30.75;10.05;;;;;;;;;;5436174;26;20011;-59
2024/04/09 01:22:46;;;;;;;39.50;8.95;;;;;;;;;;5436314;26;20470;-60
2024/04/09 01:25:12;;;;;;;27.53;8.47;;;;;;;;;;5435511;26;20742;-60
2024/04/09 01:27:38;;;;;;;21.13;7.30;;;;;;;;;;5436007;26;20015;-60
2024/04/09 01:30:05;;;;;;;;;;;;;;;;;;5436243;26;20000;-60
2024/04/09 01:32:32;;;;;;;;;;;;;;;;;;5436491;26;19929;-58
2024/04/09 01:34:59;;;;;;;18.88;9.57;;;;;;;;;;5434143;26;19925;-60
2024/04/09 01:37:28;;;;;;;21.63;8.27;;;;;;;;;;5423151;26;20000;-60
2024/04/09 01:39:54;;;;;;;17.97;8.03;;;;;;;;;;5433829;26;20230;-59
2024/04/09 01:42:19;;;;;;;15.85;7.72;;;;;;;;;;5435868;26;20237;-60
2024/04/09 01:44:46;;;;;;;16.27;7.80;;;;;;;;;;5434558;26;20011;-60
2024/04/09 01:47:12;;;;;;;18.47;8.00;;;;;;;;;;5427330;26;20000;-59
2024/04/09 01:49:37;;;;;;;17.75;8.88;;;;;;;;;;5435091;26;20257;-59
2024/04/09 01:52:04;;;;;;;18.70;8.75;;;;;;;;;;5423826;26;20054;-60
2024/04/09 01:54:29;;;;;;;18.13;7.63;;;;;;;;;;5429182;26;19996;-60
2024/04/09 01:56:55;;;;;;;24.47;8.30;;;;;;;;;;5435754;26;20000;-60
2024/04/09 01:59:20;;;;;;;16.13;7.03;;;;;;;;;;5464204;26;19996;-60
2024/04/09 02:01:46;;;;;;;18.55;8.80;;;;;;;;;;5435237;26;20011;-60
2024/04/09 02:04:12;;;;;;;17.20;8.25;;;;;;;;;;5435333;26;20015;-60
2024/04/09 02:06:37;;;;;;;15.90;6.70;;;;;;;;;;5435019;26;20000;-59
2024/04/09 02:09:03;;;;;;;15.65;6.10;;;;;;;;;;5434900;26;20036;-60
2024/04/09 02:11:30;;;;;;;31.08;7.38;;;;;;;;;;5424939;26;20018;-60
2024/04/09 02:13:55;;;;;;;15.57;5.03;;;;;;;;;;5435522;26;20011;-60
2024/04/09 02:16:21;;;;;;;13.50;4.97;;;;;;;;;;5437644;26;20000;-61
2024/04/09 02:18:47;;;;;;;12.85;5.05;;;;;;;;;;5438627;26;19996;-59
2024/04/09 02:21:12;;;;;;;16.37;5.67;;;;;;;;;;5432073;26;19996;-59
2024/04/09 02:23:38;;;;;;;14.98;5.20;;;;;;;;;;5438548;26;20269;-58
2024/04/09 02:26:04;;;;;;;14.30;4.80;;;;;;;;;;5438079;26;20031;-59
2024/04/09 02:28:30;;;;;;;8.23;3.92;;;;;;;;;;5438462;26;20330;-56
2024/04/09 02:30:56;;;;;;;11.18;3.58;;;;;;;;;;5438912;26;19999;-59
2024/04/09 02:33:22;;;;;;;8.38;4.18;;;;;;;;;;5438569;26;20050;-59
2024/04/09 02:35:58;;;;;;;9.33;3.73;;;;;;;;;;5437900;26;20032;-60
2024/04/09 02:38:24;;;;;;;17.02;4.30;;;;;;;;;;5438472;26;20049;-58
2024/04/09 02:40:50;;;;;;;8.93;4.53;;;;;;;;;;5438479;26;20019;-59
2024/04/09 02:43:16;;;;;;;10.77;4.30;;;;;;;;;;5437792;26;20230;-57
2024/04/09 02:45:42;;;;;;;11.50;4.57;;;;;;;;;;5438507;26;20001;-58
2024/04/09 02:48:07;;;;;;;;;;;;;;;;;;5438983;26;20014;-59
2024/04/09 02:50:33;;;;;;;10.17;5.00;;;;;;;;;;5438344;26;19925;-60
2024/04/09 02:52:58;;;;;;;12.30;4.80;;;;;;;;;;5438567;26;20053;-60
2024/04/09 02:55:24;;;;;;;11.88;5.18;;;;;;;;;;5437733;26;20229;-59
2024/04/09 02:57:49;;;;;;;12.70;5.57;;;;;;;;;;5438258;26;20239;-58
2024/04/09 03:00:19;;;;;;;13.77;6.25;;;;;;;;;;5438281;26;20010;-59
2024/04/09 03:02:51;;;;;;;13.20;7.17;;;;;;;;;;5438101;26;20000;-58
2024/04/09 03:05:21;;;;;;;23.70;8.57;;;;;;;;;;5437694;26;20225;-58
2024/04/09 03:07:46;;;;;;;18.50;8.43;;;;;;;;;;5438188;26;20229;-57
2024/04/09 03:10:13;;;;;;;26.13;10.00;;;;;;;;;;5426785;26;20226;-60
2024/04/09 03:12:39;;;;;;;20.20;9.57;;;;;;;;;;5436855;26;20053;-58
2024/04/09 03:15:05;;;;;;;21.73;9.75;;;;;;;;;;5437509;26;20225;-57
2024/04/09 03:17:31;;;;;;;32.05;11.40;;;;;;;;;;5437842;26;20053;-58
2024/04/09 03:19:56;;;;;;;23.10;10.90;;;;;;;;;;5431185;26;20004;-57
2024/04/09 03:22:21;;;;;;;31.53;14.03;;;;;;;;;;5436450;26;20013;-58
2024/04/09 03:24:47;;;;;;;36.00;14.40;;;;;;;;;;5438046;26;20007;-58
2024/04/09 03:27:13;;;;;;;;;;;;;;;;;;5437483;26;20068;-59
2024/04/09 03:29:38;;;;;;;35.47;15.47;;;;;;;;;;5437146;26;19925;-58
2024/04/09 03:32:04;;;;;;;41.93;17.00;;;;;;;;;;5437419;26;20018;-58
2024/04/09 03:34:29;;;;;;;54.60;22.65;;;;;;;;;;5437988;26;20054;-59
2024/04/09 03:36:56;;;;;;;48.90;20.47;;;;;;;;;;5437472;26;20004;-59
2024/04/09 03:39:21;;;;;;;49.92;19.75;;;;;;;;;;5437972;26;20026;-60
2024/04/09 03:41:48;;;;;;;52.88;23.20;;;;;;;;;;5437567;26;19999;-58
2024/04/09 03:44:13;;;;;;;58.27;22.97;;;;;;;;;;5437561;26;20012;-57
2024/04/09 03:46:39;;;;;;;66.20;27.65;;;;;;;;;;5436911;26;20309;-58
2024/04/09 03:49:05;;;;;;;65.93;27.52;;;;;;;;;;5437970;26;20000;-58
2024/04/09 03:51:30;;;;;;;73.97;29.15;;;;;;;;;;5437188;26;20004;-58
2024/04/09 03:53:56;;;;;;;73.22;30.90;;;;;;;;;;5437605;26;19995;-58
2024/04/09 03:56:22;;;;;;;82.35;34.13;;;;;;;;;;5433665;26;20010;-57
2024/04/09 03:58:48;;;;;;;62.45;27.75;;;;;;;;;;5423827;26;20358;-55
2024/04/09 04:01:13;;;;;;;65.40;27.67;;;;;;;;;;5437461;26;20011;-58
2024/04/09 04:03:45;;;;;;;71.33;30.70;;;;;;;;;;5437457;26;20000;-56
2024/04/09 04:06:11;;;;;;;74.27;28.60;;;;;;;;;;5436432;26;20022;-58
2024/04/09 04:08:38;;;;;;;51.40;23.15;;;;;;;;;;5437416;26;20229;-58
2024/04/09 04:11:04;;;;;;;56.60;23.97;;;;;;;;;;5426810;26;20004;-58
2024/04/09 04:13:30;;;;;;;46.70;20.57;;;;;;;;;;5423364;26;20679;-57
2024/04/09 04:16:01;;;;;;;40.80;18.58;;;;;;;;;;5435179;26;20229;-58
2024/04/09 04:18:27;;;;;;;35.43;16.67;;;;;;;;;;5436968;26;20012;-58
2024/04/09 04:20:53;;;;;;;37.78;15.73;;;;;;;;;;5436758;26;20234;-55
2024/04/09 04:23:18;;;;;;;30.65;15.30;;;;;;;;;;5437139;26;20015;-55
2024/04/09 04:25:54;;;;;;;31.67;14.50;;;;;;;;;;5436672;26;20032;-57
2024/04/09 04:28:19;;;;;;;33.93;15.00;;;;;;;;;;5437237;26;20000;-56
2024/04/09 04:30:45;;;;;;;30.40;15.63;;;;;;;;;;5431148;26;20267;-56
2024/04/09 04:33:11;;;;;;;28.70;14.25;;;;;;;;;;5436830;26;20233;-58
2024/04/09 04:35:37;;;;;;;31.15;15.80;;;;;;;;;;5436359;26;20028;-55
2024/04/09 04:38:03;;;;;;;40.90;18.90;;;;;;;;;;5434832;26;19999;-58
2024/04/09 04:40:28;;;;;;;35.50;17.52;;;;;;;;;;5436941;26;20003;-56
2024/04/09 04:42:54;;;;;;;34.90;17.37;;;;;;;;;;5436559;26;20015;-56
2024/04/09 04:45:20;;;;;;;30.77;16.77;;;;;;;;;;5437669;26;20466;-56
2024/04/09 04:47:45;;;;;;;32.33;18.40;;;;;;;;;;5442293;26;20013;-57
2024/04/09 04:50:12;;;;;;;34.40;17.33;;;;;;;;;;5436681;26;20063;-56
2024/04/09 04:52:37;;;;;;;30.40;16.73;;;;;;;;;;5434476;26;20234;-58
2024/04/09 04:55:03;;;;;;;27.80;16.63;;;;;;;;;;5436596;26;20077;-53
2024/04/09 04:57:28;;;;;;;31.27;16.90;;;;;;;;;;5427365;26;20063;-57
2024/04/09 04:59:55;;;;;;;40.42;17.23;;;;;;;;;;5437011;26;20069;-56
2024/04/09 05:02:20;;;;;;;29.70;17.15;;;;;;;;;;5435663;26;19996;-56
2024/04/09 05:04:53;;;;;;;36.28;18.23;;;;;;;;;;5431450;26;20164;-56
2024/04/09 05:07:19;;;;;;;29.47;17.17;;;;;;;;;;5428999;26;20023;-56
2024/04/09 05:09:44;;;;;;;32.67;15.57;;;;;;;;;;5406102;26;20301;-56
2024/04/09 05:12:09;;;;;;;31.73;16.43;;;;;;;;;;5434475;26;20004;-58
2024/04/09 05:14:35;;;;;;;27.10;14.52;;;;;;;;;;5436473;26;20277;-54
2024/04/09 05:17:01;;;;;;;26.38;12.98;;;;;;;;;;5433881;26;20011;-53
2024/04/09 05:19:26;;;;;;;16.38;9.50;;;;;;;;;;5436284;26;20014;-56
2024/04/09 05:21:52;;;;;;;15.30;7.22;;;;;;;;;;5436050;26;20049;-53
2024/04/09 05:24:17;;;;;;;11.75;5.50;;;;;;;;;;5435356;26;20010;-58
2024/04/09 05:26:42;;;;;;;11.47;4.77;;;;;;;;;;5434633;26;20000;-52
2024/04/09 05:29:08;;;;;;;9.57;3.87;;;;;;;;;;5405854;26;19996;-58
2024/04/09 05:31:33;;;;;;;9.73;4.50;;;;;;;;;;5435838;26;19996;-52
2024/04/09 05:33:59;;;;;;;9.50;3.47;;;;;;;;;;5435820;26;20028;-58
2024/04/09 05:36:26;;;;;;;15.38;4.82;;;;;;;;;;5399402;26;20393;-53
2024/04/09 05:38:52;;;;;;;15.03;3.90;;;;;;;;;;5436305;26;20346;-55
2024/04/09 05:41:17;;;;;;;10.63;4.17;;;;;;;;;;5423905;26;20221;-56
2024/04/09 05:43:42;;;;;;;9.30;3.47;;;;;;;;;;5435920;26;19995;-54
2024/04/09 05:46:08;;;;;;;16.45;3.50;;;;;;;;;;5434638;26;20015;-57
2024/04/09 05:48:33;;;;;;;11.50;3.70;;;;;;;;;;5435948;26;20026;-52
2024/04/09 05:50:59;;;;;;;8.02;3.22;;;;;;;;;;5436908;26;20025;-53
2024/04/09 05:53:24;;;;;;;10.63;3.33;;;;;;;;;;5438880;26;20000;-56
2024/04/09 05:55:54;;;;;;;13.07;3.20;;;;;;;;;;5435567;26;20467;-56
2024/04/09 05:58:20;;;;;;;7.90;3.07;;;;;;;;;;5439053;26;19999;-55
2024/04/09 06:00:46;;;;;;;11.80;3.55;;;;;;;;;;5433132;26;20318;-56
2024/04/09 06:03:13;;;;;;;9.50;4.18;;;;;;;;;;5439351;26;20007;-52
2024/04/09 06:05:38;;;;;;;13.52;4.35;;;;;;;;;;5430577;26;20004;-55
2024/04/09 06:08:04;;;;;;;11.48;3.40;;;;;;;;;;5434360;26;20015;-55
2024/04/09 06:10:29;;;;;;;17.05;3.95;;;;;;;;;;5436533;26;20014;-55
2024/04/09 06:12:54;;;;;;;12.10;4.13;;;;;;;;;;5436020;26;19999;-54
2024/04/09 06:15:21;;;;;;;9.20;3.77;;;;;;;;;;5430953;26;20495;-56
2024/04/09 06:17:47;;;;;;;14.03;4.20;;;;;;;;;;5435067;26;20000;-57
2024/04/09 06:20:12;;;;;;;10.75;3.38;;;;;;;;;;5435482;26;20317;-57
2024/04/09 06:22:38;;;;;;;21.37;4.50;;;;;;;;;;5438885;26;19999;-53
2024/04/09 06:25:03;;;;;;;15.97;4.37;;;;;;;;;;5435817;26;20000;-54
2024/04/09 06:27:29;;;;;;;16.25;5.28;;;;;;;;;;5432086;26;20017;-58
2024/04/09 06:29:55;;;;;;;9.67;5.13;;;;;;;;;;5434414;26;20039;-57
2024/04/09 06:32:20;;;;;;;11.35;4.25;;;;;;;;;;5438906;26;20037;-53
2024/04/09 06:34:46;;;;;;;13.80;4.20;;;;;;;;;;5436549;26;20000;-55
2024/04/09 06:37:12;;;;;;;12.95;4.95;;;;;;;;;;5437388;26;20011;-55
2024/04/09 06:39:37;;;;;;;10.63;5.03;;;;;;;;;;5438510;26;20003;-57
2024/04/09 06:42:03;;;;;;;18.38;5.80;;;;;;;;;;5437999;26;20007;-56
2024/04/09 06:44:29;;;;;;;12.55;5.70;;;;;;;;;;5437592;26;20011;-58
2024/04/09 06:46:56;;;;;;;13.07;4.80;;;;;;;;;;5438789;26;19999;-57
2024/04/09 06:49:21;;;;;;;8.25;3.85;;;;;;;;;;5438213;26;20252;-57
2024/04/09 06:51:47;;;;;;;9.15;3.10;;;;;;;;;;5438715;26;19996;-57
2024/04/09 06:54:12;;;;;;;7.40;2.20;;;;;;;;;;5438334;26;20291;-57
2024/04/09 06:56:37;;;;;;;10.13;2.17;;;;;;;;;;5438177;26;20010;-54
2024/04/09 06:59:03;;;;;;;12.37;2.40;;;;;;;;;;5438399;26;19999;-60
2024/04/09 07:01:28;;;;;;;10.70;1.60;;;;;;;;;;5436626;26;20007;-55
2024/04/09 07:03:53;;;;;;;13.18;1.77;;;;;;;;;;5442242;26;20093;-54
2024/04/09 07:06:19;;;;;;;8.60;1.38;;;;;;;;;;5435395;26;20752;-54
2024/04/09 07:08:45;;;;;;;4.60;1.10;;;;;;;;;;5434956;26;20006;-59
2024/04/09 07:11:11;;;;;;;7.22;1.75;;;;;;;;;;5435036;26;20010;-54
2024/04/09 07:13:36;;;;;;;8.32;1.33;;;;;;;;;;5435422;26;20204;-56
2024/04/09 07:16:02;;;;;;;9.05;1.52;;;;;;;;;;5435157;26;20006;-57
2024/04/09 07:18:27;;;;;;;9.73;1.52;;;;;;;;;;5434720;26;19999;-57
2024/04/09 07:20:53;;;;;;;6.07;1.20;;;;;;;;;;5438197;26;19996;-56
2024/04/09 07:23:19;;;;;;;11.50;1.92;;;;;;;;;;5438423;26;20288;-56
2024/04/09 07:25:44;;;;;;;13.57;1.60;;;;;;;;;;5438292;26;19997;-56
2024/04/09 07:28:10;;;;;;;7.47;1.50;;;;;;;;;;5427514;26;19999;-56
2024/04/09 07:30:36;;;;;;;6.38;1.33;;;;;;;;;;5437925;26;20053;-54
2024/04/09 07:33:02;;;;;;;6.22;1.25;;;;;;;;;;5438174;26;20015;-54
2024/04/09 07:35:28;;;;;;;12.63;1.52;;;;;;;;;;5437890;26;19996;-57
2024/04/09 07:37:54;;;;;;;9.83;1.40;;;;;;;;;;5437905;26;19999;-58
2024/04/09 07:40:20;;;;;;;7.07;1.90;;;;;;;;;;5427281;26;19996;-56
2024/04/09 07:42:45;;;;;;;5.47;1.67;;;;;;;;;;5438109;26;20301;-55
2024/04/09 07:45:11;;;;;;;4.40;1.45;;;;;;;;;;5438017;26;20080;-56
2024/04/09 07:47:37;;;;;;;5.13;1.02;;;;;;;;;;5437238;26;20011;-57
2024/04/09 07:50:09;;;;;;;8.63;1.13;;;;;;;;;;5437916;26;20000;-59
2024/04/09 07:52:38;;;;;;;11.27;1.43;;;;;;;;;;5437433;26;20022;-55
2024/04/09 07:55:05;;;;;;;4.07;2.00;;;;;;;;;;5437684;26;20225;-57
2024/04/09 07:57:31;;;;;;;9.67;1.30;;;;;;;;;;5436790;26;20264;-55
2024/04/09 07:59:58;;;;;;;5.20;1.75;;;;;;;;;;5437734;26;20226;-54
2024/04/09 08:02:24;;;;;;;6.60;1.30;;;;;;;;;;5437020;26;20075;-56
2024/04/09 08:04:49;;;;;;;11.35;1.20;;;;;;;;;;5437778;26;20221;-54
2024/04/09 08:07:15;;;;;;;10.73;1.25;;;;;;;;;;5436962;26;20023;-57
2024/04/09 08:09:41;;;;;;;7.78;1.48;;;;;;;;;;5437458;26;20018;-57
2024/04/09 08:12:07;;;;;;;7.03;2.25;;;;;;;;;;5436896;26;20011;-56
2024/04/09 08:14:32;;;;;;;6.45;1.30;;;;;;;;;;5437686;26;20003;-56
2024/04/09 08:16:58;;;;;;;9.40;1.73;;;;;;;;;;5435136;26;20029;-59
2024/04/09 08:19:23;;;;;;;8.68;1.65;;;;;;;;;;5437144;26;20000;-56
2024/04/09 08:21:49;;;;;;;12.90;1.97;;;;;;;;;;5436677;26;20003;-56
2024/04/09 08:24:16;;;;;;;5.30;1.35;;;;;;;;;;5437615;26;20014;-54
2024/04/09 08:26:42;;;;;;;11.90;2.13;;;;;;;;;;5437252;26;20054;-55
2024/04/09 08:29:10;;;;;;;8.75;1.70;;;;;;;;;;5436924;26;20326;-54
2024/04/09 08:31:36;;;;;;;7.07;1.60;;;;;;;;;;5436522;26;19999;-56
2024/04/09 08:34:02;;;;;;;8.52;1.65;;;;;;;;;;5436671;26;20238;-56
2024/04/09 08:36:28;;;;;;;11.65;1.42;;;;;;;;;;5436630;26;20015;-56
2024/04/09 08:38:53;;;;;;;9.47;1.77;;;;;;;;;;5436541;26;20000;-57
2024/04/09 08:41:20;;;;;;;9.52;1.98;;;;;;;;;;5436980;26;20018;-56
2024/04/09 08:43:47;;;;;;;6.30;1.67;;;;;;;;;;5436931;26;20055;-56
2024/04/09 08:46:13;;;;;;;9.50;1.63;;;;;;;;;;5436627;26;20250;-54
2024/04/09 08:48:39;;;;;;;6.18;1.25;;;;;;;;;;5436187;26;20233;-56
2024/04/09 08:51:05;;;;;;;9.25;1.77;;;;;;;;;;5436803;26;20110;-55
2024/04/09 08:53:32;;;;;;;7.05;1.10;;;;;;;;;;5436407;26;20000;-56
2024/04/09 08:55:59;;;;;;;4.83;1.43;;;;;;;;;;5436061;26;20115;-58
2024/04/09 08:58:25;;;;;;;10.17;1.57;;;;;;;;;;5435749;26;20234;-56
2024/04/09 09:00:50;;;;;;;6.28;1.67;;;;;;;;;;5437068;26;20253;-57
2024/04/09 09:03:16;;;;;;;8.10;1.48;;;;;;;;;;5436856;26;20011;-52
2024/04/09 09:05:41;;;;;;;4.20;1.50;;;;;;;;;;5436944;26;20006;-55
2024/04/09 09:08:07;;;;;;;4.65;1.20;;;;;;;;;;5436605;26;20053;-57
2024/04/09 09:10:33;;;;;;;6.20;1.30;;;;;;;;;;5436695;26;19996;-56
2024/04/09 09:13:04;;;;;;;7.45;2.08;;;;;;;;;;5436681;26;20010;-58
2024/04/09 09:15:31;;;;;;;9.50;1.97;;;;;;;;;;5436431;26;20095;-58
2024/04/09 09:17:56;;;;;;;9.00;1.42;;;;;;;;;;5436346;26;20308;-57
2024/04/09 09:20:22;;;;;;;4.53;1.17;;;;;;;;;;5436260;26;20042;-56
2024/04/09 09:22:48;;;;;;;6.80;1.08;;;;;;;;;;5436646;26;20003;-54
2024/04/09 09:25:25;;;;;;;15.98;1.75;;;;;;;;;;5435396;26;20007;-53
2024/04/09 09:28:07;;;;;;;2.43;1.00;;;;;;;;;;5436427;26;20006;-56
2024/04/09 09:30:40;;;;;;;3.77;1.10;;;;;;;;;;5436156;26;20262;-52
2024/04/09 09:33:11;;;;;;;4.10;1.17;;;;;;;;;;5435949;26;20225;-55
2024/04/09 09:35:39;;;;;;;9.33;1.23;;;;;;;;;;5435858;26;20221;-56
2024/04/09 09:38:04;;;;;;;10.03;1.33;;;;;;;;;;5435448;26;20305;-56
2024/04/09 09:40:30;;;;;;;5.32;0.98;;;;;;;;;;5435734;26;20256;-55
2024/04/09 09:42:56;;;;;;;7.30;1.45;;;;;;;;;;5435868;26;20000;-58
2024/04/09 09:45:23;;;;;;;2.95;0.90;;;;;;;;;;5436008;26;20026;-55
2024/04/09 09:47:49;;;;;;;6.38;1.55;;;;;;;;;;5435489;26;19999;-57
2024/04/09 09:50:16;;;;;;;5.90;1.08;;;;;;;;;;5435872;26;20007;-54
2024/04/09 09:52:42;;;;;;;3.40;1.30;;;;;;;;;;5435568;26;20000;-54
2024/04/09 09:55:09;;;;;;;9.20;1.17;;;;;;;;;;5435896;26;20024;-53
2024/04/09 09:57:37;;;;;;;3.37;1.10;;;;;;;;;;5434361;26;20032;-56
2024/04/09 10:00:12;;;;;;;6.00;1.10;;;;;;;;;;5435683;26;20003;-55
2024/04/09 10:02:41;;;;;;;4.77;1.10;;;;;;;;;;5435483;26;20031;-58
2024/04/09 10:05:07;;;;;;;4.43;1.00;;;;;;;;;;5435704;26;20004;-57
2024/04/09 10:07:33;;;;;;;10.27;1.37;;;;;;;;;;5434488;26;20004;-56
2024/04/09 10:09:59;;;;;;;6.28;1.10;;;;;;;;;;5435370;26;20014;-57
2024/04/09 10:12:31;;;;;;;3.65;1.30;;;;;;;;;;5411509;26;20064;-58
2024/04/09 10:14:57;;;;;;;3.43;0.90;;;;;;;;;;5435694;26;19995;-57
2024/04/09 10:17:23;;;;;;;;;;;;;;;;;;5435710;26;20042;-58
2024/04/09 10:19:48;;;;;;;3.60;0.90;;;;;;;;;;5435410;26;19933;-57
2024/04/09 10:22:15;;;;;;;6.63;1.05;;;;;;;;;;5435186;26;20014;-58
2024/04/09 10:24:42;;;;;;;2.85;0.90;;;;;;;;;;5435354;26;19999;-58
2024/04/09 10:27:11;;;;;;;3.60;1.30;;;;;;;;;;5435124;26;20020;-57
2024/04/09 10:29:37;;;;;;;2.13;0.90;;;;;;;;;;5434627;26;19995;-58
2024/04/09 10:32:11;;;;;;;3.78;0.93;;;;;;;;;;5435320;26;20057;-56
2024/04/09 10:34:37;;;;;;;5.67;1.03;;;;;;;;;;5426584;26;20010;-56
2024/04/09 10:37:02;;;;;;;6.57;1.13;;;;;;;;;;5437540;26;19996;-55
2024/04/09 10:39:28;;;;;;;2.15;0.63;;;;;;;;;;5438091;26;20004;-58
2024/04/09 10:41:57;;;;;;;6.85;1.00;;;;;;;;;;5439135;26;20024;-59
2024/04/09 10:44:26;;;;;;;5.57;1.20;;;;;;;;;;5438155;26;19996;-55
2024/04/09 10:46:52;;;;;;;4.80;1.20;;;;;;;;;;5438787;26;20011;-58
2024/04/09 10:49:18;;;;;;;4.67;0.97;;;;;;;;;;5437902;26;20019;-56
2024/04/09 10:51:44;;;;;;;7.22;1.00;;;;;;;;;;5438796;26;19999;-58
2024/04/09 10:54:13;;;;;;;2.58;0.90;;;;;;;;;;5438201;26;20004;-54
2024/04/09 10:56:39;;;;;;;3.43;0.80;;;;;;;;;;5438254;26;20010;-54
2024/04/09 10:59:14;;;;;;;9.23;1.17;;;;;;;;;;5437706;26;19999;-57
2024/04/09 11:01:41;;;;;;;2.63;0.80;;;;;;;;;;5437771;26;20023;-56
2024/04/09 11:04:07;;;;;;;6.70;0.93;;;;;;;;;;5437895;26;20024;-55
2024/04/09 11:06:35;;;;;;;5.28;0.80;;;;;;;;;;5438428;26;20000;-57
2024/04/09 11:09:01;;;;;;;2.33;0.90;;;;;;;;;;5437589;26;20037;-55
2024/04/09 11:11:27;;;;;;;4.53;1.08;;;;;;;;;;5438027;26;20015;-57
2024/04/09 11:13:52;;;;;;;4.20;1.73;;;;;;;;;;5437907;26;19996;-55
2024/04/09 11:16:18;;;;;;;3.65;1.20;;;;;;;;;;5407473;26;20011;-57
2024/04/09 11:19:00;;;;;;;6.03;1.52;;;;;;;;;;5437251;26;20014;-56
2024/04/09 11:21:28;;;;;;;2.60;1.13;;;;;;;;;;5422321;26;20011;-57
2024/04/09 11:23:54;;;;;;;9.53;1.53;;;;;;;;;;5437688;26;20273;-57
2024/04/09 11:26:21;;;;;;;3.47;1.07;;;;;;;;;;5438225;26;20296;-56
2024/04/09 11:28:50;;;;;;;8.85;1.55;;;;;;;;;;5437227;26;20237;-58
2024/04/09 11:31:19;;;;;;;4.30;1.40;;;;;;;;;;5424656;26;20010;-56
2024/04/09 11:33:45;;;;;;;6.20;1.17;;;;;;;;;;5437847;26;20233;-57
2024/04/09 11:36:10;;;;;;;5.70;0.83;;;;;;;;;;5437964;26;20238;-55
2024/04/09 11:38:36;;;;;;;16.10;1.40;;;;;;;;;;5437086;26;20245;-55
2024/04/09 11:41:02;;;;;;;2.67;0.85;;;;;;;;;;5437833;26;20004;-56
2024/04/09 11:43:30;;;;;;;7.85;1.48;;;;;;;;;;5437360;26;19995;-54
2024/04/09 11:45:57;;;;;;;4.23;1.07;;;;;;;;;;5438095;26;20307;-55
2024/04/09 11:48:22;;;;;;;3.70;0.97;;;;;;;;;;5436799;26;20229;-55
2024/04/09 11:50:48;;;;;;;4.50;1.00;;;;;;;;;;5437831;26;20308;-55
2024/04/09 11:53:13;;;;;;;8.57;1.15;;;;;;;;;;5437522;26;20060;-55
2024/04/09 11:55:39;;;;;;;8.40;1.00;;;;;;;;;;5437069;26;20010;-56
2024/04/09 11:58:04;;;;;;;5.30;1.10;;;;;;;;;;5465254;26;19995;-56
2024/04/09 12:00:30;;;;;;;12.13;1.77;;;;;;;;;;5406463;26;20010;-55
2024/04/09 12:02:55;;;;;;;5.93;0.97;;;;;;;;;;5437682;26;20010;-56
2024/04/09 12:05:21;;;;;;;11.80;2.20;;;;;;;;;;5437534;26;20037;-56
2024/04/09 12:07:47;;;;;;;6.53;1.00;;;;;;;;;;5437652;26;20011;-51
2024/04/09 12:10:12;;;;;;;10.60;1.30;;;;;;;;;;5437058;26;19996;-58
2024/04/09 12:12:40;;;;;;;4.88;0.90;;;;;;;;;;5437137;26;20007;-52
2024/04/09 12:15:06;;;;;;;3.83;1.23;;;;;;;;;;5417359;26;19999;-53
2024/04/09 12:17:32;;;;;;;5.13;1.02;;;;;;;;;;5436950;26;20297;-57
2024/04/09 12:19:57;;;;;;;11.15;1.52;;;;;;;;;;5435239;26;19996;-58
2024/04/09 12:22:23;;;;;;;10.90;1.40;;;;;;;;;;5436657;26;20007;-57
2024/04/09 12:24:48;;;;;;;6.10;1.48;;;;;;;;;;5437140;26;20000;-57
2024/04/09 12:27:15;;;;;;;9.85;1.20;;;;;;;;;;5437111;26;20004;-58
2024/04/09 12:29:40;;;;;;;4.53;0.80;;;;;;;;;;5437013;26;20003;-56
2024/04/09 12:32:06;;;;;;;15.77;1.30;;;;;;;;;;5436892;26;20014;-57
2024/04/09 12:34:32;;;;;;;1.92;0.80;;;;;;;;;;5436827;26;20007;-57
2024/04/09 12:36:57;;;;;;;4.75;0.70;;;;;;;;;;5436662;26;20015;-55
2024/04/09 12:39:27;;;;;;;10.45;1.98;;;;;;;;;;5436446;26;20012;-58
2024/04/09 12:41:53;;;;;;;6.00;0.80;;;;;;;;;;5436758;26;20016;-57
2024/04/09 12:44:20;;;;;;;20.87;2.27;;;;;;;;;;5436886;26;20242;-52
2024/04/09 12:46:47;;;;;;;9.07;1.13;;;;;;;;;;5436289;26;20271;-55
2024/04/09 12:49:13;;;;;;;5.40;1.00;;;;;;;;;;5436207;26;20229;-55
2024/04/09 12:51:39;;;;;;;3.80;1.08;;;;;;;;;;5436864;26;20027;-55
2024/04/09 12:54:04;;;;;;;6.00;1.00;;;;;;;;;;5436280;26;20003;-54
2024/04/09 12:56:30;;;;;;;8.63;1.55;;;;;;;;;;5436039;26;20014;-55
2024/04/09 12:58:55;;;;;;;13.27;1.92;;;;;;;;;;5434561;26;20028;-56
2024/04/09 13:01:21;;;;;;;3.90;1.20;;;;;;;;;;5436687;26;20006;-57
2024/04/09 13:03:47;;;;;;;8.57;0.88;;;;;;;;;;5436334;26;20010;-56
2024/04/09 13:06:12;;;;;;;9.85;1.08;;;;;;;;;;5436404;26;20007;-54
2024/04/09 13:08:38;;;;;;;6.15;1.25;;;;;;;;;;5415977;26;20058;-57
2024/04/09 13:11:03;;;;;;;4.05;0.82;;;;;;;;;;5405876;26;20049;-57
2024/04/09 13:13:29;;;;;;;4.32;0.98;;;;;;;;;;5436413;26;20008;-56
2024/04/09 13:15:55;;;;;;;11.20;1.00;;;;;;;;;;5436812;26;20014;-57
2024/04/09 13:18:21;;;;;;;9.85;1.27;;;;;;;;;;5436579;26;20026;-57
2024/04/09 13:20:47;;;;;;;11.70;1.30;;;;;;;;;;5435970;26;20003;-58
2024/04/09 13:23:14;;;;;;;7.28;1.10;;;;;;;;;;5414143;26;20007;-55
2024/04/09 13:25:40;;;;;;;2.50;0.80;;;;;;;;;;5413967;26;20027;-54
2024/04/09 13:28:06;;;;;;;10.55;1.40;;;;;;;;;;5436235;26;20237;-55
2024/04/09 13:30:32;;;;;;;7.13;1.27;;;;;;;;;;5435961;26;20004;-57
2024/04/09 13:32:57;;;;;;;10.77;1.20;;;;;;;;;;5436160;26;20006;-55
2024/04/09 13:35:23;;;;;;;11.45;1.00;;;;;;;;;;5436479;26;20015;-54
2024/04/09 13:37:48;;;;;;;4.47;0.80;;;;;;;;;;5436572;26;20008;-56
2024/04/09 13:40:14;;;;;;;5.57;1.23;;;;;;;;;;5424131;26;20007;-56
2024/04/09 13:42:40;;;;;;;2.17;0.70;;;;;;;;;;5436246;26;19999;-55
2024/04/09 13:45:06;;;;;;;6.47;0.90;;;;;;;;;;5436012;26;20018;-56
2024/04/09 13:47:31;;;;;;;5.75;0.95;;;;;;;;;;5436128;26;19999;-57
2024/04/09 13:49:57;;;;;;;2.40;0.90;;;;;;;;;;5435222;26;20049;-57
2024/04/09 13:52:23;;;;;;;6.13;1.20;;;;;;;;;;5435704;26;20010;-59
2024/04/09 13:54:48;;;;;;;3.43;0.97;;;;;;;;;;5435978;26;19996;-53
2024/04/09 13:57:14;;;;;;;3.70;0.93;;;;;;;;;;5435895;26;20018;-56
2024/04/09 13:59:40;;;;;;;2.72;1.33;;;;;;;;;;5435042;26;19999;-55
2024/04/09 14:02:14;;;;;;;5.90;1.10;;;;;;;;;;5435804;26;20030;-56
2024/04/09 14:04:39;;;;;;;2.73;0.73;;;;;;;;;;5435445;26;19999;-57
2024/04/09 14:07:05;;;;;;;5.10;0.93;;;;;;;;;;5435414;26;20273;-57
2024/04/09 14:09:31;;;;;;;8.90;0.95;;;;;;;;;;5434539;26;20019;-56
2024/04/09 14:11:57;;;;;;;2.58;0.80;;;;;;;;;;5438292;26;20007;-56
2024/04/09 14:14:22;;;;;;;6.30;1.35;;;;;;;;;;5438620;26;19996;-57
2024/04/09 14:16:48;;;;;;;4.73;1.03;;;;;;;;;;5439292;26;20050;-58
2024/04/09 14:19:13;;;;;;;4.75;1.27;;;;;;;;;;5438223;26;20820;-55
2024/04/09 14:21:41;;;;;;;5.35;0.63;;;;;;;;;;5438502;26;20007;-55
2024/04/09 14:24:12;;;;;;;2.37;0.83;;;;;;;;;;5438537;26;20570;-58
2024/04/09 14:26:38;;;;;;;0.63;0.33;;;;;;;;;;5438649;26;20012;-57
2024/04/09 14:29:04;;;;;;;5.57;1.08;;;;;;;;;;5438499;26;20046;-57
2024/04/09 14:31:29;;;;;;;4.53;1.33;;;;;;;;;;5438018;26;20010;-58